Time;durP1;ratioP1;P1;durP2;ratioP2;P2;SDS_P1;SDS_P2;PMS_P1;PMS_P2;Temp;Humidity;BMP_temperature;BMP_pressure;BME280_temperature;BME280_humidity;BME280_pressure;Samples;Min_cycle;Max_cycle;Signal;HPM_P1;HPM_P2
2022/08/29 00:01:13;;;;;;;18.38;16.45;;;;;;;;;;5070970;28;20039;-61
2022/08/29 00:03:39;;;;;;;19.35;16.42;;;;;;;;;;5075062;28;20035;-62
2022/08/29 00:06:05;;;;;;;18.48;16.48;;;;;;;;;;5075962;28;20035;-62
2022/08/29 00:08:31;;;;;;;18.42;16.60;;;;;;;;;;5076655;28;20406;-63
2022/08/29 00:10:57;;;;;;;20.00;18.05;;;;;;;;;;5069066;28;20036;-62
2022/08/29 00:13:22;;;;;;;20.00;17.88;;;;;;;;;;5082176;28;20081;-61
2022/08/29 00:15:48;;;;;;;19.50;16.60;;;;;;;;;;5071436;28;20734;-61
2022/08/29 00:18:15;;;;;;;18.77;17.02;;;;;;;;;;5080304;28;20085;-61
2022/08/29 00:20:41;;;;;;;19.00;17.00;;;;;;;;;;5063388;28;20029;-61
2022/08/29 00:23:07;;;;;;;19.95;16.98;;;;;;;;;;5076805;28;20020;-61
2022/08/29 00:25:33;;;;;;;18.15;16.35;;;;;;;;;;5072760;28;20087;-62
2022/08/29 00:27:59;;;;;;;19.60;17.65;;;;;;;;;;5072234;28;20633;-63
2022/08/29 00:30:25;;;;;;;20.60;17.88;;;;;;;;;;5073710;28;20028;-62
2022/08/29 00:32:52;;;;;;;19.08;17.10;;;;;;;;;;5074096;28;20067;-59
2022/08/29 00:35:24;;;;;;;22.15;17.63;;;;;;;;;;5079699;28;20081;-61
2022/08/29 00:37:53;;;;;;;19.85;17.90;;;;;;;;;;5066954;28;20032;-62
2022/08/29 00:40:23;;;;;;;20.70;17.52;;;;;;;;;;5068862;28;20033;-62
2022/08/29 00:42:48;;;;;;;19.10;17.00;;;;;;;;;;5071803;28;20054;-62
2022/08/29 00:45:16;;;;;;;20.20;18.00;;;;;;;;;;5080449;28;20132;-62
2022/08/29 00:47:57;;;;;;;19.15;17.25;;;;;;;;;;5067929;28;20033;-61
2022/08/29 00:50:38;;;;;;;19.40;17.45;;;;;;;;;;5094510;22;20090;-62
2022/08/29 00:53:07;;;;;;;21.05;18.85;;;;;;;;;;5067980;28;20045;-63
2022/08/29 00:55:37;;;;;;;20.23;18.17;;;;;;;;;;5074920;28;20090;-62
2022/08/29 00:58:14;;;;;;;24.23;19.70;;;;;;;;;;5063862;28;20032;-61
2022/08/29 01:00:41;;;;;;;20.45;18.38;;;;;;;;;;5065042;28;20031;-61
2022/08/29 01:03:07;;;;;;;20.50;18.40;;;;;;;;;;5070177;28;20042;-61
2022/08/29 01:05:33;;;;;;;19.52;17.70;;;;;;;;;;5072869;28;20037;-62
2022/08/29 01:07:59;;;;;;;25.30;18.55;;;;;;;;;;5075643;28;20657;-61
2022/08/29 01:13:11;;;;;;;24.30;19.20;;;;;;;;;;5081789;28;20055;-60
2022/08/29 01:15:39;;;;;;;20.83;18.48;;;;;;;;;;5070261;28;20067;-61
2022/08/29 01:18:08;;;;;;;20.90;18.70;;;;;;;;;;5080395;28;20061;-60
2022/08/29 01:20:54;;;;;;;23.27;20.17;;;;;;;;;;5074897;28;20539;-61
2022/08/29 01:23:34;;;;;;;22.50;19.30;;;;;;;;;;5074635;28;20123;-63
2022/08/29 01:26:02;;;;;;;21.45;19.23;;;;;;;;;;5075664;28;20040;-60
2022/08/29 01:28:31;;;;;;;23.50;19.33;;;;;;;;;;5070190;28;20029;-61
2022/08/29 01:31:06;;;;;;;24.27;19.65;;;;;;;;;;5078994;28;20036;-60
2022/08/29 01:33:55;;;;;;;21.42;19.15;;;;;;;;;;5075149;28;20032;-61
2022/08/29 01:36:23;;;;;;;23.25;19.63;;;;;;;;;;5075598;28;20032;-59
2022/08/29 01:38:48;;;;;;;22.05;18.75;;;;;;;;;;5074553;28;20095;-61
2022/08/29 01:41:16;;;;;;;20.92;18.80;;;;;;;;;;5078339;28;20031;-61
2022/08/29 01:43:44;;;;;;;22.17;18.08;;;;;;;;;;5072131;28;20037;-61
2022/08/29 01:46:13;;;;;;;20.90;18.80;;;;;;;;;;5077862;28;20071;-61
2022/08/29 01:48:42;;;;;;;23.45;19.73;;;;;;;;;;5076854;28;20656;-61
2022/08/29 01:51:08;;;;;;;24.42;18.73;;;;;;;;;;5079551;28;20375;-60
2022/08/29 01:53:34;;;;;;;21.60;18.98;;;;;;;;;;5073127;28;20024;-60
2022/08/29 01:56:11;;;;;;;20.88;18.58;;;;;;;;;;5079384;28;20184;-61
2022/08/29 01:58:37;;;;;;;21.48;19.25;;;;;;;;;;5085419;28;20090;-60
2022/08/29 02:01:04;;;;;;;21.17;17.90;;;;;;;;;;5074567;28;20089;-60
2022/08/29 02:03:29;;;;;;;19.90;17.80;;;;;;;;;;5074655;28;20445;-60
2022/08/29 02:05:58;;;;;;;21.35;17.55;;;;;;;;;;5080339;28;20146;-60
2022/08/29 02:08:23;;;;;;;22.45;18.65;;;;;;;;;;5077498;28;20647;-60
2022/08/29 02:10:49;;;;;;;20.27;18.17;;;;;;;;;;5074770;28;20050;-59
2022/08/29 02:13:14;;;;;;;22.52;18.98;;;;;;;;;;5081612;28;20024;-61
2022/08/29 02:15:40;;;;;;;25.58;19.60;;;;;;;;;;5065565;28;20045;-60
2022/08/29 02:18:05;;;;;;;24.02;18.55;;;;;;;;;;5072297;28;20059;-61
2022/08/29 02:20:31;;;;;;;28.70;19.70;;;;;;;;;;5082330;28;20118;-61
2022/08/29 02:22:58;;;;;;;22.20;19.80;;;;;;;;;;5081028;28;20038;-61
2022/08/29 02:25:41;;;;;;;26.55;20.77;;;;;;;;;;5079066;28;20058;-61
2022/08/29 02:28:10;;;;;;;27.23;21.60;;;;;;;;;;5079316;28;20528;-61
2022/08/29 02:30:41;;;;;;;30.08;23.20;;;;;;;;;;5079091;28;20043;-61
2022/08/29 02:33:07;;;;;;;29.00;22.80;;;;;;;;;;5078596;28;20039;-61
2022/08/29 02:35:34;;;;;;;32.58;22.38;;;;;;;;;;5076520;28;20064;-61
2022/08/29 02:38:00;;;;;;;23.38;20.25;;;;;;;;;;5082591;28;20056;-61
2022/08/29 02:40:26;;;;;;;25.83;19.77;;;;;;;;;;5082774;28;20136;-61
2022/08/29 02:42:53;;;;;;;27.83;20.25;;;;;;;;;;5078109;28;20111;-61
2022/08/29 02:45:20;;;;;;;22.52;19.42;;;;;;;;;;5075495;28;20166;-61
2022/08/29 02:47:46;;;;;;;21.23;18.45;;;;;;;;;;5083843;28;20482;-61
2022/08/29 02:50:12;;;;;;;24.00;19.02;;;;;;;;;;5079716;28;20061;-62
2022/08/29 02:52:39;;;;;;;22.15;19.10;;;;;;;;;;5074050;28;20115;-61
2022/08/29 02:55:06;;;;;;;23.45;19.35;;;;;;;;;;5080654;28;20032;-61
2022/08/29 02:57:31;;;;;;;24.25;19.92;;;;;;;;;;5080880;28;20028;-59
2022/08/29 02:59:57;;;;;;;23.27;19.27;;;;;;;;;;5078045;28;20039;-62
2022/08/29 03:02:22;;;;;;;26.20;21.38;;;;;;;;;;5075416;28;20119;-61
2022/08/29 03:04:48;;;;;;;27.48;21.95;;;;;;;;;;5076530;28;20170;-60
2022/08/29 03:07:14;;;;;;;28.25;21.92;;;;;;;;;;5079801;28;20123;-61
2022/08/29 03:09:39;;;;;;;24.02;21.23;;;;;;;;;;5074021;28;20171;-60
2022/08/29 03:12:05;;;;;;;24.95;19.80;;;;;;;;;;5077594;28;20049;-59
2022/08/29 03:14:30;;;;;;;23.70;18.80;;;;;;;;;;5081197;28;20039;-62
2022/08/29 03:16:56;;;;;;;26.40;19.73;;;;;;;;;;5083059;28;20393;-60
2022/08/29 03:19:22;;;;;;;23.27;18.92;;;;;;;;;;5070412;28;20039;-62
2022/08/29 03:21:47;;;;;;;21.30;19.02;;;;;;;;;;5079949;28;20032;-62
2022/08/29 03:24:14;;;;;;;21.70;18.77;;;;;;;;;;5081602;28;20103;-62
2022/08/29 03:26:39;;;;;;;20.52;18.35;;;;;;;;;;5078941;28;20068;-60
2022/08/29 03:29:05;;;;;;;19.65;17.60;;;;;;;;;;5066159;28;20078;-62
2022/08/29 03:31:31;;;;;;;22.80;19.58;;;;;;;;;;5079398;28;20070;-61
2022/08/29 03:33:56;;;;;;;22.15;18.65;;;;;;;;;;5082855;28;20122;-62
2022/08/29 03:36:25;;;;;;;22.85;20.42;;;;;;;;;;5076550;28;20024;-61
2022/08/29 03:38:51;;;;;;;25.00;20.27;;;;;;;;;;5084081;28;20040;-62
2022/08/29 03:41:26;;;;;;;22.33;20.02;;;;;;;;;;5080079;28;20085;-62
2022/08/29 03:43:57;;;;;;;21.40;19.20;;;;;;;;;;5082461;28;20483;-62
2022/08/29 03:46:23;;;;;;;22.70;19.75;;;;;;;;;;5076397;28;20073;-62
2022/08/29 03:48:49;;;;;;;25.75;19.63;;;;;;;;;;5079478;28;20052;-60
2022/08/29 03:51:16;;;;;;;23.17;20.13;;;;;;;;;;5079594;28;20033;-60
2022/08/29 03:53:41;;;;;;;26.60;21.38;;;;;;;;;;5081840;28;20037;-61
2022/08/29 03:56:08;;;;;;;23.85;21.20;;;;;;;;;;5077126;28;20040;-61
2022/08/29 03:58:34;;;;;;;26.90;21.08;;;;;;;;;;5077784;28;20073;-60
2022/08/29 04:01:00;;;;;;;23.33;20.40;;;;;;;;;;5078217;28;20044;-60
2022/08/29 04:03:25;;;;;;;26.90;20.40;;;;;;;;;;5073594;28;20039;-61
2022/08/29 04:05:51;;;;;;;24.85;21.13;;;;;;;;;;5079906;28;20368;-59
2022/08/29 04:08:17;;;;;;;25.92;19.83;;;;;;;;;;5075311;28;20112;-60
2022/08/29 04:10:43;;;;;;;24.17;21.30;;;;;;;;;;5074228;28;20086;-61
2022/08/29 04:13:09;;;;;;;24.85;20.05;;;;;;;;;;5076990;28;20035;-60
2022/08/29 04:15:36;;;;;;;24.20;19.85;;;;;;;;;;5067871;28;20562;-61
2022/08/29 04:18:05;;;;;;;26.55;19.90;;;;;;;;;;5068940;28;20442;-61
2022/08/29 04:20:36;;;;;;;24.25;20.02;;;;;;;;;;5074633;28;20067;-61
2022/08/29 04:23:03;;;;;;;23.55;20.50;;;;;;;;;;5077718;28;20031;-61
2022/08/29 04:25:35;;;;;;;26.35;20.38;;;;;;;;;;5065816;28;20467;-61
2022/08/29 04:28:07;;;;;;;26.45;21.60;;;;;;;;;;5067936;28;20111;-61
2022/08/29 04:30:33;;;;;;;30.33;22.60;;;;;;;;;;5070059;28;20036;-61
2022/08/29 04:32:59;;;;;;;28.85;22.52;;;;;;;;;;5077945;28;20035;-61
2022/08/29 04:35:25;;;;;;;27.35;20.95;;;;;;;;;;5071593;28;20066;-61
2022/08/29 04:37:51;;;;;;;28.10;21.88;;;;;;;;;;5075349;28;20394;-62
2022/08/29 04:40:20;;;;;;;30.85;23.10;;;;;;;;;;5074179;28;20038;-61
2022/08/29 04:42:46;;;;;;;32.65;23.23;;;;;;;;;;5074116;28;20385;-60
2022/08/29 04:45:15;;;;;;;32.25;22.88;;;;;;;;;;5070531;28;20040;-61
2022/08/29 04:47:41;;;;;;;;;;;;;;;;;;5073211;28;20048;-61
2022/08/29 04:50:10;;;;;;;31.25;21.92;;;;;;;;;;5075580;28;20408;-61
2022/08/29 04:52:36;;;;;;;29.85;21.45;;;;;;;;;;5075195;28;20035;-61
2022/08/29 04:55:03;;;;;;;28.08;21.83;;;;;;;;;;5074324;28;20036;-61
2022/08/29 04:57:28;;;;;;;26.52;20.90;;;;;;;;;;5070274;28;20448;-60
2022/08/29 04:59:57;;;;;;;28.05;22.92;;;;;;;;;;5070623;28;20061;-61
2022/08/29 05:02:23;;;;;;;27.42;21.65;;;;;;;;;;5077048;28;20039;-60
2022/08/29 05:04:55;;;;;;;32.08;23.58;;;;;;;;;;5078049;28;20097;-61
2022/08/29 05:07:24;;;;;;;31.88;24.13;;;;;;;;;;5074867;28;20527;-61
2022/08/29 05:09:57;;;;;;;32.45;23.40;;;;;;;;;;5069540;28;20511;-61
2022/08/29 05:12:24;;;;;;;31.08;23.08;;;;;;;;;;5073405;28;20024;-60
2022/08/29 05:14:51;;;;;;;32.75;22.27;;;;;;;;;;5074142;28;20174;-60
2022/08/29 05:17:17;;;;;;;28.15;21.70;;;;;;;;;;5070246;28;20036;-61
2022/08/29 05:19:43;;;;;;;31.02;22.30;;;;;;;;;;5076874;28;20062;-61
2022/08/29 05:22:11;;;;;;;32.45;22.42;;;;;;;;;;5077250;28;20024;-61
2022/08/29 05:24:37;;;;;;;28.40;23.35;;;;;;;;;;5079933;28;20057;-61
2022/08/29 05:27:10;;;;;;;30.70;23.65;;;;;;;;;;5073738;28;20523;-62
2022/08/29 05:29:43;;;;;;;33.78;24.42;;;;;;;;;;5071246;28;20033;-61
2022/08/29 05:32:10;;;;;;;32.22;24.15;;;;;;;;;;5066288;28;20554;-62
2022/08/29 05:34:37;;;;;;;27.75;22.75;;;;;;;;;;5070448;28;20381;-61
2022/08/29 05:37:08;;;;;;;25.60;22.20;;;;;;;;;;5080411;28;20039;-62
2022/08/29 05:39:34;;;;;;;29.85;22.10;;;;;;;;;;5075824;28;20436;-61
2022/08/29 05:42:01;;;;;;;26.42;23.08;;;;;;;;;;5074343;28;20036;-61
2022/08/29 05:44:31;;;;;;;30.10;22.65;;;;;;;;;;5076389;28;20033;-61
2022/08/29 05:46:58;;;;;;;31.00;23.38;;;;;;;;;;5082254;28;20121;-61
2022/08/29 05:49:24;;;;;;;33.05;23.55;;;;;;;;;;5078469;28;20478;-61
2022/08/29 05:51:55;;;;;;;28.48;23.10;;;;;;;;;;5076810;28;20487;-62
2022/08/29 05:54:21;;;;;;;31.20;22.83;;;;;;;;;;5077492;28;20111;-60
2022/08/29 05:56:47;;;;;;;24.73;22.02;;;;;;;;;;5080407;28;20039;-61
2022/08/29 05:59:14;;;;;;;23.92;21.45;;;;;;;;;;5078017;28;20106;-62
2022/08/29 06:01:40;;;;;;;22.77;20.55;;;;;;;;;;5080094;28;20028;-61
2022/08/29 06:04:05;;;;;;;21.70;18.85;;;;;;;;;;5079539;28;20035;-61
2022/08/29 06:06:31;;;;;;;22.38;20.20;;;;;;;;;;5076199;28;20113;-61
2022/08/29 06:08:58;;;;;;;22.38;18.83;;;;;;;;;;5074620;28;20031;-61
2022/08/29 06:11:30;;;;;;;26.42;19.17;;;;;;;;;;5083459;28;20040;-61
2022/08/29 06:13:56;;;;;;;20.95;18.83;;;;;;;;;;5075745;28;20098;-61
2022/08/29 06:16:24;;;;;;;31.02;20.48;;;;;;;;;;5079631;28;20540;-62
2022/08/29 06:18:50;;;;;;;22.13;18.63;;;;;;;;;;5069731;28;20101;-61
2022/08/29 06:21:16;;;;;;;22.23;19.20;;;;;;;;;;5078061;28;20036;-61
2022/08/29 06:23:43;;;;;;;22.15;19.88;;;;;;;;;;5071891;28;20024;-60
2022/08/29 06:26:10;;;;;;;21.95;18.83;;;;;;;;;;5077302;28;20036;-61
2022/08/29 06:28:38;;;;;;;20.83;18.73;;;;;;;;;;5079831;28;20039;-61
2022/08/29 06:31:09;;;;;;;18.73;16.80;;;;;;;;;;5075943;28;20143;-61
2022/08/29 06:33:35;;;;;;;20.35;18.27;;;;;;;;;;5079577;28;20024;-61
2022/08/29 06:36:01;;;;;;;20.50;18.40;;;;;;;;;;5081910;28;20552;-61
2022/08/29 06:38:26;;;;;;;18.60;16.67;;;;;;;;;;5079234;28;20062;-61
2022/08/29 06:40:52;;;;;;;19.45;17.58;;;;;;;;;;5074198;28;20040;-61
2022/08/29 06:43:18;;;;;;;18.50;16.55;;;;;;;;;;5069673;28;20119;-60
2022/08/29 06:45:43;;;;;;;18.50;16.60;;;;;;;;;;5074711;28;20516;-61
2022/08/29 06:48:09;;;;;;;18.48;16.58;;;;;;;;;;5083393;28;20034;-59
2022/08/29 06:50:37;;;;;;;18.30;16.50;;;;;;;;;;5073368;28;20102;-64
2022/08/29 06:53:03;;;;;;;17.90;15.95;;;;;;;;;;5073441;28;20033;-64
2022/08/29 06:55:28;;;;;;;16.67;15.30;;;;;;;;;;5073269;28;20033;-63
2022/08/29 06:57:54;;;;;;;16.75;14.60;;;;;;;;;;5085065;28;20031;-68
2022/08/29 07:00:20;;;;;;;15.85;14.35;;;;;;;;;;5072861;28;20040;-63
2022/08/29 07:02:52;;;;;;;17.92;15.30;;;;;;;;;;5069291;28;20059;-63
2022/08/29 07:05:17;;;;;;;15.85;14.35;;;;;;;;;;5074259;28;20074;-62
2022/08/29 07:07:43;;;;;;;16.95;15.10;;;;;;;;;;5072240;28;20032;-64
2022/08/29 07:10:11;;;;;;;16.55;15.10;;;;;;;;;;5051363;28;20546;-65
2022/08/29 07:12:38;;;;;;;15.73;14.25;;;;;;;;;;5063351;28;20052;-65
2022/08/29 07:15:04;;;;;;;15.82;14.13;;;;;;;;;;5067301;28;20025;-65
2022/08/29 07:17:30;;;;;;;14.90;13.60;;;;;;;;;;5074688;28;20038;-64
2022/08/29 07:19:56;;;;;;;14.50;13.20;;;;;;;;;;5076323;28;20119;-67
2022/08/29 07:22:22;;;;;;;14.63;13.23;;;;;;;;;;5074272;28;20036;-65
2022/08/29 07:24:47;;;;;;;14.23;12.90;;;;;;;;;;5077813;28;20076;-65
2022/08/29 07:27:13;;;;;;;15.20;13.63;;;;;;;;;;5080582;28;20028;-66
2022/08/29 07:29:40;;;;;;;14.38;12.73;;;;;;;;;;5065514;28;20029;-65
2022/08/29 07:32:06;;;;;;;13.85;12.73;;;;;;;;;;5070935;28;20571;-65
2022/08/29 07:34:32;;;;;;;13.63;12.25;;;;;;;;;;5078412;28;20423;-64
2022/08/29 07:36:58;;;;;;;20.58;13.18;;;;;;;;;;5077578;28;20028;-65
2022/08/29 07:39:24;;;;;;;14.15;12.85;;;;;;;;;;5075276;28;20111;-64
2022/08/29 07:41:49;;;;;;;13.40;12.35;;;;;;;;;;5072422;28;20040;-66
2022/08/29 07:44:17;;;;;;;14.10;12.85;;;;;;;;;;5080440;28;20071;-64
2022/08/29 07:46:43;;;;;;;14.20;12.95;;;;;;;;;;5064745;28;20048;-64
2022/08/29 07:49:10;;;;;;;14.38;13.18;;;;;;;;;;5062943;28;20029;-64
2022/08/29 07:51:37;;;;;;;14.40;12.95;;;;;;;;;;5068003;28;20515;-64
2022/08/29 07:54:03;;;;;;;17.10;12.48;;;;;;;;;;5082253;28;20028;-65
2022/08/29 07:56:37;;;;;;;14.00;12.60;;;;;;;;;;5074449;28;20039;-64
2022/08/29 07:59:02;;;;;;;13.65;12.27;;;;;;;;;;5066465;28;20032;-65
2022/08/29 08:01:28;;;;;;;13.43;12.15;;;;;;;;;;5077080;28;20068;-65
2022/08/29 08:03:55;;;;;;;13.35;12.20;;;;;;;;;;5072201;28;20028;-65
2022/08/29 08:06:22;;;;;;;13.88;12.52;;;;;;;;;;5075216;28;20036;-65
2022/08/29 08:08:51;;;;;;;12.63;11.55;;;;;;;;;;5075071;28;20069;-65
2022/08/29 08:11:19;;;;;;;13.90;12.63;;;;;;;;;;5069140;28;20667;-65
2022/08/29 08:13:45;;;;;;;13.90;12.18;;;;;;;;;;5065208;28;20025;-65
2022/08/29 08:16:17;;;;;;;12.98;11.77;;;;;;;;;;5076333;28;20119;-64
2022/08/29 08:18:43;;;;;;;13.50;12.18;;;;;;;;;;5052895;28;20071;-65
2022/08/29 08:21:09;;;;;;;12.90;11.82;;;;;;;;;;5050808;28;20028;-64
2022/08/29 08:23:36;;;;;;;13.25;11.85;;;;;;;;;;5052801;28;20484;-65
2022/08/29 08:26:03;;;;;;;13.77;12.48;;;;;;;;;;5055400;28;20178;-64
2022/08/29 08:28:29;;;;;;;11.90;10.93;;;;;;;;;;5047655;28;20045;-64
2022/08/29 08:30:57;;;;;;;13.00;11.70;;;;;;;;;;5059314;28;20135;-63
2022/08/29 08:33:23;;;;;;;13.43;11.32;;;;;;;;;;5042920;28;20029;-64
2022/08/29 08:35:49;;;;;;;13.00;11.90;;;;;;;;;;5058736;28;20715;-64
2022/08/29 08:38:18;;;;;;;13.20;12.02;;;;;;;;;;5052792;28;20042;-65
2022/08/29 08:40:55;;;;;;;13.07;11.73;;;;;;;;;;5052665;28;20055;-64
2022/08/29 08:43:27;;;;;;;16.43;12.07;;;;;;;;;;5058476;28;20075;-65
2022/08/29 08:45:55;;;;;;;14.68;11.27;;;;;;;;;;5054779;28;20048;-63
2022/08/29 08:48:24;;;;;;;13.30;11.27;;;;;;;;;;5056274;28;20120;-64
2022/08/29 08:50:55;;;;;;;13.88;11.82;;;;;;;;;;5062015;28;20062;-65
2022/08/29 08:53:33;;;;;;;14.05;11.70;;;;;;;;;;5057818;28;20024;-64
2022/08/29 08:56:04;;;;;;;12.52;11.05;;;;;;;;;;5051828;28;20048;-64
2022/08/29 08:58:46;;;;;;;12.60;11.57;;;;;;;;;;5046048;28;20057;-64
2022/08/29 09:01:28;;;;;;;12.27;11.18;;;;;;;;;;5055727;28;20036;-65
2022/08/29 09:04:31;;;;;;;11.95;10.75;;;;;;;;;;5051934;28;20094;-65
2022/08/29 09:07:07;;;;;;;11.68;10.43;;;;;;;;;;5056443;28;20561;-64
2022/08/29 09:09:57;;;;;;;11.88;10.70;;;;;;;;;;5059644;28;20090;-65
2022/08/29 09:12:53;;;;;;;27.15;12.13;;;;;;;;;;5049038;28;20032;-65
2022/08/29 09:15:22;;;;;;;15.45;11.57;;;;;;;;;;5058371;28;20108;-64
2022/08/29 09:17:56;;;;;;;14.98;10.68;;;;;;;;;;5051913;28;20061;-65
2022/08/29 09:20:32;;;;;;;12.10;10.88;;;;;;;;;;5059325;28;20059;-64
2022/08/29 09:23:02;;;;;;;12.93;11.63;;;;;;;;;;5056835;28;20075;-64
2022/08/29 09:25:34;;;;;;;12.38;11.38;;;;;;;;;;5047553;28;20032;-65
2022/08/29 09:28:03;;;;;;;12.25;11.15;;;;;;;;;;5051951;28;20124;-64
2022/08/29 09:30:32;;;;;;;12.98;11.65;;;;;;;;;;5057507;28;20068;-64
2022/08/29 09:33:01;;;;;;;;;;;;;;;;;;5054694;28;20048;-64
2022/08/29 09:35:36;;;;;;;15.30;11.57;;;;;;;;;;5047956;28;20376;-64
2022/08/29 09:38:16;;;;;;;16.65;12.05;;;;;;;;;;5052211;28;20097;-64
2022/08/29 09:40:45;;;;;;;13.45;11.90;;;;;;;;;;5052400;28;20448;-64
2022/08/29 09:43:17;;;;;;;16.33;12.00;;;;;;;;;;5055741;28;20128;-64
2022/08/29 09:46:10;;;;;;;11.82;10.93;;;;;;;;;;5056642;28;20470;-64
2022/08/29 09:48:39;;;;;;;13.15;10.38;;;;;;;;;;5058418;28;20040;-65
2022/08/29 09:51:35;;;;;;;12.10;10.88;;;;;;;;;;5049916;28;20395;-65
2022/08/29 09:54:27;;;;;;;11.60;10.65;;;;;;;;;;5056428;28;20036;-65
2022/08/29 09:57:18;;;;;;;12.65;11.55;;;;;;;;;;5059827;28;20122;-65
2022/08/29 09:59:48;;;;;;;13.45;12.20;;;;;;;;;;5064604;28;20052;-65
2022/08/29 10:02:28;;;;;;;12.40;11.18;;;;;;;;;;5055484;28;20074;-65
2022/08/29 10:05:06;;;;;;;12.45;11.35;;;;;;;;;;5045859;28;20032;-65
2022/08/29 10:07:54;;;;;;;12.40;11.27;;;;;;;;;;5050656;28;20056;-65
2022/08/29 10:10:26;;;;;;;12.82;11.60;;;;;;;;;;5048710;28;20126;-64
2022/08/29 10:13:10;;;;;;;11.13;10.23;;;;;;;;;;5068065;28;20104;-64
2022/08/29 10:15:45;;;;;;;10.55;9.70;;;;;;;;;;5055442;28;20116;-64
2022/08/29 10:18:22;;;;;;;10.48;9.57;;;;;;;;;;5055707;28;20041;-64
2022/08/29 10:21:45;;;;;;;9.93;9.13;;;;;;;;;;5052445;28;20044;-64
2022/08/29 10:24:43;;;;;;;10.75;9.95;;;;;;;;;;5032798;28;20394;-63
2022/08/29 10:27:29;;;;;;;10.55;9.75;;;;;;;;;;5021441;28;20044;-65
2022/08/29 10:30:19;;;;;;;11.20;10.30;;;;;;;;;;5039694;28;20487;-65
2022/08/29 10:32:50;;;;;;;11.38;10.48;;;;;;;;;;5061712;28;20099;-64
2022/08/29 10:35:18;;;;;;;11.25;9.95;;;;;;;;;;5052231;28;20051;-65
2022/08/29 10:38:12;;;;;;;10.68;9.77;;;;;;;;;;5053523;28;20483;-64
2022/08/29 10:40:41;;;;;;;10.45;9.55;;;;;;;;;;5058846;28;20024;-64
2022/08/29 10:43:22;;;;;;;13.23;10.95;;;;;;;;;;5054330;28;20063;-64
2022/08/29 10:45:53;;;;;;;;;;;;;;;;;;5047375;28;20257;-63
2022/08/29 10:48:28;;;;;;;11.13;10.18;;;;;;;;;;5050410;28;19912;-64
2022/08/29 10:51:09;;;;;;;11.52;10.63;;;;;;;;;;5054224;28;20037;-64
2022/08/29 10:53:39;;;;;;;11.07;10.20;;;;;;;;;;5038768;28;20033;-64
2022/08/29 10:56:04;;;;;;;11.73;10.80;;;;;;;;;;5048339;28;20139;-64
2022/08/29 10:58:36;;;;;;;11.75;10.65;;;;;;;;;;5053092;28;20514;-64
2022/08/29 11:01:12;;;;;;;11.55;10.65;;;;;;;;;;5060418;28;20036;-63
2022/08/29 11:03:48;;;;;;;11.23;10.23;;;;;;;;;;5049840;28;20040;-64
2022/08/29 11:06:23;;;;;;;11.13;10.05;;;;;;;;;;5054290;28;20070;-63
2022/08/29 11:08:57;;;;;;;11.70;10.60;;;;;;;;;;5053643;28;20041;-63
2022/08/29 11:11:24;;;;;;;12.20;10.32;;;;;;;;;;5054335;28;20039;-64
2022/08/29 11:13:57;;;;;;;10.68;9.73;;;;;;;;;;5044945;28;20033;-63
2022/08/29 11:16:45;;;;;;;10.45;9.45;;;;;;;;;;5045532;28;20479;-62
2022/08/29 11:19:23;;;;;;;10.40;9.50;;;;;;;;;;5052723;28;20029;-64
2022/08/29 11:22:13;;;;;;;10.55;9.65;;;;;;;;;;5034912;28;20045;-64
2022/08/29 11:24:39;;;;;;;10.35;9.55;;;;;;;;;;5049053;28;20032;-65
2022/08/29 11:27:46;;;;;;;11.73;10.52;;;;;;;;;;5050545;28;20037;-65
2022/08/29 11:30:48;;;;;;;10.35;9.55;;;;;;;;;;5048785;28;20036;-65
2022/08/29 11:33:31;;;;;;;9.80;8.98;;;;;;;;;;5055103;28;20062;-67
2022/08/29 11:36:14;;;;;;;9.23;8.30;;;;;;;;;;5055620;28;20452;-66
2022/08/29 11:38:58;;;;;;;9.43;8.70;;;;;;;;;;5054458;28;20112;-65
2022/08/29 11:41:23;;;;;;;9.63;8.82;;;;;;;;;;5050275;28;20040;-65
2022/08/29 11:43:53;;;;;;;10.32;9.38;;;;;;;;;;5059433;28;20049;-67
2022/08/29 11:46:41;;;;;;;9.88;9.07;;;;;;;;;;5058117;28;20033;-65
2022/08/29 11:49:37;;;;;;;9.95;9.25;;;;;;;;;;5055489;28;20025;-64
2022/08/29 11:52:11;;;;;;;9.05;8.25;;;;;;;;;;5055332;28;20036;-65
2022/08/29 11:54:38;;;;;;;9.63;8.90;;;;;;;;;;5058276;28;20060;-66
2022/08/29 11:57:04;;;;;;;9.90;9.10;;;;;;;;;;5053549;28;20036;-65
2022/08/29 11:59:48;;;;;;;9.85;9.15;;;;;;;;;;5050292;28;20091;-65
2022/08/29 12:02:40;;;;;;;10.77;9.88;;;;;;;;;;5057831;28;20033;-65
2022/08/29 12:05:28;;;;;;;9.98;9.27;;;;;;;;;;5049180;28;20474;-65
2022/08/29 12:08:11;;;;;;;12.07;9.35;;;;;;;;;;5050958;28;20503;-65
2022/08/29 12:10:54;;;;;;;9.63;8.85;;;;;;;;;;5056748;28;20272;-66
2022/08/29 12:13:45;;;;;;;10.02;9.23;;;;;;;;;;5052243;28;20045;-67
2022/08/29 12:16:14;;;;;;;9.88;9.10;;;;;;;;;;5057711;28;20476;-66
2022/08/29 12:18:44;;;;;;;9.77;9.07;;;;;;;;;;5059826;28;20033;-65
2022/08/29 12:21:43;;;;;;;9.60;9.00;;;;;;;;;;5054022;28;20483;-66
2022/08/29 12:24:38;;;;;;;10.30;9.52;;;;;;;;;;5051777;28;20442;-65
2022/08/29 12:27:19;;;;;;;10.10;9.32;;;;;;;;;;5058290;28;20098;-65
2022/08/29 12:29:45;;;;;;;9.98;9.02;;;;;;;;;;5055213;28;20502;-66
2022/08/29 12:32:38;;;;;;;10.60;9.80;;;;;;;;;;5050293;28;20041;-66
2022/08/29 12:35:23;;;;;;;10.80;10.00;;;;;;;;;;5055958;28;20135;-66
2022/08/29 12:38:16;;;;;;;10.23;9.43;;;;;;;;;;5049471;28;20033;-66
2022/08/29 12:40:48;;;;;;;10.38;9.52;;;;;;;;;;5051384;28;20037;-66
2022/08/29 12:43:43;;;;;;;10.63;9.82;;;;;;;;;;5049973;28;20495;-66
2022/08/29 12:46:25;;;;;;;10.38;9.68;;;;;;;;;;5051738;28;20048;-65
2022/08/29 12:49:01;;;;;;;10.40;9.50;;;;;;;;;;5051749;28;20032;-65
2022/08/29 12:51:40;;;;;;;9.95;9.25;;;;;;;;;;5065677;22;20047;-64
2022/08/29 12:54:07;;;;;;;10.02;9.15;;;;;;;;;;5064168;28;20036;-63
2022/08/29 12:56:33;;;;;;;10.60;9.60;;;;;;;;;;5054090;28;20036;-63
2022/08/29 12:59:02;;;;;;;10.48;9.77;;;;;;;;;;5058766;28;20029;-64
2022/08/29 13:01:29;;;;;;;;;;;;;;;;;;5065286;28;20032;-64
2022/08/29 13:04:10;;;;;;;10.43;9.68;;;;;;;;;;5054217;28;20344;-64
2022/08/29 13:06:49;;;;;;;10.52;9.55;;;;;;;;;;5043578;28;20406;-64
2022/08/29 13:09:32;;;;;;;10.80;9.98;;;;;;;;;;5041867;28;20025;-63
2022/08/29 13:12:06;;;;;;;10.48;9.65;;;;;;;;;;5051581;28;20113;-63
2022/08/29 13:14:33;;;;;;;10.85;9.85;;;;;;;;;;5049519;28;20488;-63
2022/08/29 13:16:59;;;;;;;10.63;9.82;;;;;;;;;;5042017;28;20480;-64
2022/08/29 13:19:25;;;;;;;9.88;9.15;;;;;;;;;;5046448;28;20036;-63
2022/08/29 13:22:02;;;;;;;10.57;9.60;;;;;;;;;;5045924;28;20045;-64
2022/08/29 13:24:27;;;;;;;9.93;9.13;;;;;;;;;;5038643;28;20029;-63
2022/08/29 13:26:57;;;;;;;13.55;9.93;;;;;;;;;;5044472;28;20041;-63
2022/08/29 13:29:33;;;;;;;10.85;9.95;;;;;;;;;;5038989;28;20037;-63
2022/08/29 13:32:21;;;;;;;10.50;9.75;;;;;;;;;;5043805;28;20091;-63
2022/08/29 13:35:17;;;;;;;10.82;10.02;;;;;;;;;;5042158;28;20091;-63
2022/08/29 13:37:45;;;;;;;11.00;10.02;;;;;;;;;;5041846;28;20052;-61
2022/08/29 13:40:39;;;;;;;10.82;10.02;;;;;;;;;;5044446;28;20095;-63
2022/08/29 13:43:06;;;;;;;10.65;9.77;;;;;;;;;;5044984;28;20041;-63
2022/08/29 13:45:32;;;;;;;10.68;9.88;;;;;;;;;;5046191;28;20037;-64
2022/08/29 13:48:19;;;;;;;10.07;9.38;;;;;;;;;;5047133;28;20120;-63
2022/08/29 13:50:45;;;;;;;10.90;10.13;;;;;;;;;;5047333;28;20522;-63
2022/08/29 13:53:11;;;;;;;10.65;9.85;;;;;;;;;;5044528;28;20180;-63
2022/08/29 13:55:39;;;;;;;10.93;10.13;;;;;;;;;;5045039;28;20508;-63
2022/08/29 13:58:04;;;;;;;10.30;9.50;;;;;;;;;;5042303;28;20044;-64
2022/08/29 14:00:32;;;;;;;10.20;9.57;;;;;;;;;;5047823;28;20037;-63
2022/08/29 14:03:00;;;;;;;10.77;9.88;;;;;;;;;;5048116;28;20175;-63
2022/08/29 14:05:26;;;;;;;10.60;9.77;;;;;;;;;;5040823;28;20075;-64
2022/08/29 14:07:51;;;;;;;10.25;9.55;;;;;;;;;;5046797;28;20033;-64
2022/08/29 14:10:17;;;;;;;10.20;9.40;;;;;;;;;;5044734;28;20071;-63
2022/08/29 14:12:43;;;;;;;10.65;9.75;;;;;;;;;;5036800;28;20037;-63
2022/08/29 14:15:12;;;;;;;9.98;9.18;;;;;;;;;;5039342;28;20037;-64
2022/08/29 14:17:39;;;;;;;11.35;10.25;;;;;;;;;;5044949;28;20032;-63
2022/08/29 14:20:08;;;;;;;10.70;9.90;;;;;;;;;;5049126;28;20189;-63
2022/08/29 14:22:33;;;;;;;;;;;;;;;;;;5048401;28;20040;-63
2022/08/29 14:25:00;;;;;;;11.20;10.27;;;;;;;;;;5046053;28;20307;-65
2022/08/29 14:27:25;;;;;;;10.55;9.85;;;;;;;;;;5059274;28;20053;-62
2022/08/29 14:29:51;;;;;;;10.80;9.90;;;;;;;;;;5050117;28;20033;-63
2022/08/29 14:32:17;;;;;;;10.65;9.85;;;;;;;;;;5047500;28;20040;-62
2022/08/29 14:34:43;;;;;;;10.00;9.15;;;;;;;;;;5047162;28;20088;-62
2022/08/29 14:37:08;;;;;;;10.70;9.70;;;;;;;;;;5049775;28;20369;-63
2022/08/29 14:39:34;;;;;;;11.18;10.38;;;;;;;;;;5039960;28;22187;-63
2022/08/29 14:42:00;;;;;;;10.82;10.00;;;;;;;;;;5047425;28;20354;-62
2022/08/29 14:44:26;;;;;;;11.02;10.20;;;;;;;;;;5046116;28;20033;-62
2022/08/29 14:46:51;;;;;;;11.10;10.20;;;;;;;;;;5049214;28;20043;-62
2022/08/29 14:49:18;;;;;;;10.73;9.82;;;;;;;;;;5046792;28;20499;-62